createdAt,value
2022-10-15T04:58:01.071Z,8.31
2022-10-15T05:01:07.657Z,8.34
2022-10-15T05:04:12.329Z,8.39
2022-10-15T05:07:15.532Z,8.42
2022-10-15T05:10:18.431Z,8.48
2022-10-15T05:13:21.780Z,8.51
2022-10-15T05:16:27.513Z,8.57
2022-10-15T05:19:30.414Z,8.61
2022-10-15T05:22:33.107Z,8.65
2022-10-15T05:25:37.034Z,8.70
2022-10-15T05:28:39.873Z,8.73
2022-10-15T05:31:42.726Z,8.75
2022-10-15T05:34:46.823Z,8.79
2022-10-15T05:37:49.891Z,8.81
2022-10-15T05:40:53.161Z,8.87
2022-10-15T05:43:58.715Z,8.90
2022-10-15T05:47:01.291Z,8.95
2022-10-15T05:50:08.153Z,9.06
2022-10-15T05:53:15.581Z,9.09
2022-10-15T05:56:19.245Z,9.11
2022-10-15T05:59:21.795Z,9.11
2022-10-15T06:02:24.829Z,9.15
2022-10-15T06:05:27.944Z,9.19
2022-10-15T06:08:31.547Z,9.25
2022-10-15T06:11:36.456Z,9.40
2022-10-15T06:14:38.992Z,9.53
2022-10-15T06:17:42.453Z,9.70
2022-10-15T06:20:51.451Z,9.92
2022-10-15T06:23:54.208Z,10.08
2022-10-15T06:26:59.372Z,10.25
2022-10-15T06:30:02.541Z,10.37
2022-10-15T06:33:05.173Z,10.49
2022-10-15T06:36:10.301Z,10.54
2022-10-15T06:39:12.725Z,10.51
2022-10-15T06:42:17.164Z,10.51
2022-10-15T06:45:23.061Z,10.54
2022-10-15T06:48:26.224Z,10.70
2022-10-15T06:51:28.690Z,10.79
2022-10-15T06:54:31.491Z,10.88
2022-10-15T06:57:34.101Z,11.03
2022-10-15T07:00:36.958Z,11.19
2022-10-15T07:03:41.811Z,11.41
2022-10-15T07:06:44.617Z,11.60
2022-10-15T07:09:47.608Z,11.68
2022-10-15T07:12:50.434Z,11.85
2022-10-15T07:15:53.929Z,11.98
2022-10-15T07:18:56.679Z,12.16
2022-10-15T07:21:59.155Z,12.35
2022-10-15T07:25:02.164Z,12.48
2022-10-15T07:28:05.463Z,12.49
2022-10-15T07:31:08.263Z,12.52
2022-10-15T07:34:10.756Z,12.67
2022-10-15T07:37:13.487Z,12.78
2022-10-15T07:40:17.851Z,12.95
2022-10-15T07:43:20.635Z,13.12
2022-10-15T07:46:23.199Z,13.29
2022-10-15T07:49:29.479Z,13.42
2022-10-15T07:52:31.957Z,13.50
2022-10-15T07:55:35.328Z,13.70
2022-10-15T07:58:38.678Z,13.88
